sensor_id;sensor_type;location;lat;lon;timestamp;temperature;humidity
43087;DHT22;28708;52.224;6.924;2023-12-20T00:00:58;6.90;99.90
43087;DHT22;28708;52.224;6.924;2023-12-20T00:03:24;6.80;99.90
43087;DHT22;28708;52.224;6.924;2023-12-20T00:05:50;6.80;99.90
43087;DHT22;28708;52.224;6.924;2023-12-20T00:08:16;6.80;99.90
43087;DHT22;28708;52.224;6.924;2023-12-20T00:10:42;6.80;99.90
43087;DHT22;28708;52.224;6.924;2023-12-20T00:13:08;6.80;99.90
43087;DHT22;28708;52.224;6.924;2023-12-20T00:15:34;6.80;99.90
43087;DHT22;28708;52.224;6.924;2023-12-20T00:18:00;6.80;99.90
43087;DHT22;28708;52.224;6.924;2023-12-20T00:20:26;6.80;99.90
43087;DHT22;28708;52.224;6.924;2023-12-20T00:22:56;6.70;99.90
43087;DHT22;28708;52.224;6.924;2023-12-20T00:25:21;6.70;99.90
43087;DHT22;28708;52.224;6.924;2023-12-20T00:27:47;6.70;99.90
43087;DHT22;28708;52.224;6.924;2023-12-20T00:30:13;6.60;99.90
43087;DHT22;28708;52.224;6.924;2023-12-20T00:32:38;6.60;99.90
43087;DHT22;28708;52.224;6.924;2023-12-20T00:35:04;6.60;99.90
43087;DHT22;28708;52.224;6.924;2023-12-20T00:37:30;6.50;99.90
43087;DHT22;28708;52.224;6.924;2023-12-20T00:39:56;6.50;99.90
43087;DHT22;28708;52.224;6.924;2023-12-20T00:42:21;6.60;99.90
43087;DHT22;28708;52.224;6.924;2023-12-20T00:44:47;6.50;99.90
43087;DHT22;28708;52.224;6.924;2023-12-20T00:47:13;6.40;99.90
43087;DHT22;28708;52.224;6.924;2023-12-20T00:49:38;6.50;99.90
43087;DHT22;28708;52.224;6.924;2023-12-20T00:52:04;6.40;99.90
43087;DHT22;28708;52.224;6.924;2023-12-20T00:54:30;6.40;99.90
43087;DHT22;28708;52.224;6.924;2023-12-20T00:56:56;6.50;99.90
43087;DHT22;28708;52.224;6.924;2023-12-20T00:59:22;6.50;99.90
43087;DHT22;28708;52.224;6.924;2023-12-20T01:01:47;6.40;99.90
43087;DHT22;28708;52.224;6.924;2023-12-20T01:04:13;6.40;99.90
43087;DHT22;28708;52.224;6.924;2023-12-20T01:06:38;6.30;99.90
43087;DHT22;28708;52.224;6.924;2023-12-20T01:09:04;6.30;99.90
43087;DHT22;28708;52.224;6.924;2023-12-20T01:11:30;6.30;99.90
43087;DHT22;28708;52.224;6.924;2023-12-20T01:13:55;6.30;99.90
43087;DHT22;28708;52.224;6.924;2023-12-20T01:16:21;6.30;99.90
43087;DHT22;28708;52.224;6.924;2023-12-20T01:18:46;6.30;99.90
43087;DHT22;28708;52.224;6.924;2023-12-20T01:21:12;6.20;99.90
43087;DHT22;28708;52.224;6.924;2023-12-20T01:23:41;6.20;99.90
43087;DHT22;28708;52.224;6.924;2023-12-20T01:26:08;6.20;99.90
43087;DHT22;28708;52.224;6.924;2023-12-20T01:28:34;6.20;99.90
43087;DHT22;28708;52.224;6.924;2023-12-20T01:30:59;6.20;99.90
43087;DHT22;28708;52.224;6.924;2023-12-20T01:33:25;6.20;99.90
43087;DHT22;28708;52.224;6.924;2023-12-20T01:35:51;6.10;99.90
43087;DHT22;28708;52.224;6.924;2023-12-20T01:38:16;6.10;99.90
43087;DHT22;28708;52.224;6.924;2023-12-20T01:40:44;6.00;99.90
43087;DHT22;28708;52.224;6.924;2023-12-20T01:43:10;6.00;99.90
43087;DHT22;28708;52.224;6.924;2023-12-20T01:45:37;5.90;99.90
43087;DHT22;28708;52.224;6.924;2023-12-20T01:48:04;5.90;99.90
43087;DHT22;28708;52.224;6.924;2023-12-20T01:50:31;5.90;99.90
43087;DHT22;28708;52.224;6.924;2023-12-20T01:52:59;5.90;99.90
43087;DHT22;28708;52.224;6.924;2023-12-20T01:55:27;5.90;99.90
43087;DHT22;28708;52.224;6.924;2023-12-20T01:57:55;6.00;99.90
43087;DHT22;28708;52.224;6.924;2023-12-20T02:00:23;6.00;99.90
43087;DHT22;28708;52.224;6.924;2023-12-20T02:02:50;5.90;99.90
43087;DHT22;28708;52.224;6.924;2023-12-20T02:05:17;5.90;99.90
43087;DHT22;28708;52.224;6.924;2023-12-20T02:07:43;5.90;99.90
43087;DHT22;28708;52.224;6.924;2023-12-20T02:10:09;5.90;99.90
43087;DHT22;28708;52.224;6.924;2023-12-20T02:12:35;5.90;99.90
43087;DHT22;28708;52.224;6.924;2023-12-20T02:15:01;5.90;99.90
43087;DHT22;28708;52.224;6.924;2023-12-20T02:17:27;5.90;99.90
43087;DHT22;28708;52.224;6.924;2023-12-20T02:19:54;5.90;99.90
43087;DHT22;28708;52.224;6.924;2023-12-20T02:22:20;6.00;99.90
43087;DHT22;28708;52.224;6.924;2023-12-20T02:24:45;6.00;99.90
43087;DHT22;28708;52.224;6.924;2023-12-20T02:27:11;6.00;99.90
43087;DHT22;28708;52.224;6.924;2023-12-20T02:29:37;6.00;99.90
43087;DHT22;28708;52.224;6.924;2023-12-20T02:32:03;6.00;99.90
43087;DHT22;28708;52.224;6.924;2023-12-20T02:34:29;5.90;99.90
43087;DHT22;28708;52.224;6.924;2023-12-20T02:36:55;5.90;99.90
43087;DHT22;28708;52.224;6.924;2023-12-20T02:39:21;5.90;99.90
43087;DHT22;28708;52.224;6.924;2023-12-20T02:41:48;5.80;99.90
43087;DHT22;28708;52.224;6.924;2023-12-20T02:44:14;5.80;99.90
43087;DHT22;28708;52.224;6.924;2023-12-20T02:46:39;5.80;99.90
43087;DHT22;28708;52.224;6.924;2023-12-20T02:49:06;5.80;99.90
43087;DHT22;28708;52.224;6.924;2023-12-20T02:51:31;5.80;99.90
43087;DHT22;28708;52.224;6.924;2023-12-20T02:53:57;5.80;99.90
43087;DHT22;28708;52.224;6.924;2023-12-20T02:56:23;5.80;99.90
43087;DHT22;28708;52.224;6.924;2023-12-20T02:58:48;5.80;99.90
43087;DHT22;28708;52.224;6.924;2023-12-20T03:01:14;5.80;99.90
43087;DHT22;28708;52.224;6.924;2023-12-20T03:03:40;5.80;99.90
43087;DHT22;28708;52.224;6.924;2023-12-20T03:06:05;5.80;99.90
43087;DHT22;28708;52.224;6.924;2023-12-20T03:08:31;5.80;99.90
43087;DHT22;28708;52.224;6.924;2023-12-20T03:10:58;5.80;99.90
43087;DHT22;28708;52.224;6.924;2023-12-20T03:13:24;5.80;99.90
43087;DHT22;28708;52.224;6.924;2023-12-20T03:15:49;5.80;99.90
43087;DHT22;28708;52.224;6.924;2023-12-20T03:18:15;5.80;99.90
43087;DHT22;28708;52.224;6.924;2023-12-20T03:20:40;5.90;99.90
43087;DHT22;28708;52.224;6.924;2023-12-20T03:23:07;5.90;99.90
43087;DHT22;28708;52.224;6.924;2023-12-20T03:25:32;5.90;99.90
43087;DHT22;28708;52.224;6.924;2023-12-20T03:27:58;6.00;99.90
43087;DHT22;28708;52.224;6.924;2023-12-20T03:30:23;6.00;99.90
43087;DHT22;28708;52.224;6.924;2023-12-20T03:32:49;6.00;99.90
43087;DHT22;28708;52.224;6.924;2023-12-20T03:35:15;6.00;99.90
43087;DHT22;28708;52.224;6.924;2023-12-20T03:37:41;6.00;99.90
43087;DHT22;28708;52.224;6.924;2023-12-20T03:40:07;6.00;99.90
43087;DHT22;28708;52.224;6.924;2023-12-20T03:42:33;6.00;99.90
43087;DHT22;28708;52.224;6.924;2023-12-20T03:44:58;6.10;99.90
43087;DHT22;28708;52.224;6.924;2023-12-20T03:47:24;6.10;99.90
43087;DHT22;28708;52.224;6.924;2023-12-20T03:49:50;6.10;99.90
43087;DHT22;28708;52.224;6.924;2023-12-20T03:52:17;6.10;99.90
43087;DHT22;28708;52.224;6.924;2023-12-20T03:54:43;6.10;99.90
43087;DHT22;28708;52.224;6.924;2023-12-20T03:57:08;6.10;99.90
43087;DHT22;28708;52.224;6.924;2023-12-20T03:59:37;6.10;99.90
43087;DHT22;28708;52.224;6.924;2023-12-20T04:02:03;6.10;99.90
43087;DHT22;28708;52.224;6.924;2023-12-20T04:04:30;6.10;99.90
43087;DHT22;28708;52.224;6.924;2023-12-20T04:06:56;6.10;99.90
43087;DHT22;28708;52.224;6.924;2023-12-20T04:09:21;6.10;99.90
43087;DHT22;28708;52.224;6.924;2023-12-20T04:11:47;6.10;99.90
43087;DHT22;28708;52.224;6.924;2023-12-20T04:14:13;6.20;99.90
43087;DHT22;28708;52.224;6.924;2023-12-20T04:16:40;6.20;99.90
43087;DHT22;28708;52.224;6.924;2023-12-20T04:19:05;6.20;99.90
43087;DHT22;28708;52.224;6.924;2023-12-20T04:21:31;6.20;99.90
43087;DHT22;28708;52.224;6.924;2023-12-20T04:23:57;6.20;99.90
43087;DHT22;28708;52.224;6.924;2023-12-20T04:26:23;6.20;99.90
43087;DHT22;28708;52.224;6.924;2023-12-20T04:28:49;6.30;99.90
43087;DHT22;28708;52.224;6.924;2023-12-20T04:31:14;6.30;99.90
43087;DHT22;28708;52.224;6.924;2023-12-20T04:33:40;6.20;99.90
43087;DHT22;28708;52.224;6.924;2023-12-20T04:36:06;6.30;99.90
43087;DHT22;28708;52.224;6.924;2023-12-20T04:38:34;6.20;99.90
43087;DHT22;28708;52.224;6.924;2023-12-20T04:41:00;6.20;99.90
43087;DHT22;28708;52.224;6.924;2023-12-20T04:43:25;6.30;99.90
43087;DHT22;28708;52.224;6.924;2023-12-20T04:45:51;6.30;99.90
43087;DHT22;28708;52.224;6.924;2023-12-20T04:48:17;6.30;99.90
43087;DHT22;28708;52.224;6.924;2023-12-20T04:50:42;6.30;99.90
43087;DHT22;28708;52.224;6.924;2023-12-20T04:53:08;6.30;99.90
43087;DHT22;28708;52.224;6.924;2023-12-20T04:55:33;6.20;99.90
43087;DHT22;28708;52.224;6.924;2023-12-20T04:57:59;6.30;99.90
43087;DHT22;28708;52.224;6.924;2023-12-20T05:00:25;6.20;99.90
43087;DHT22;28708;52.224;6.924;2023-12-20T05:02:50;6.20;99.90
43087;DHT22;28708;52.224;6.924;2023-12-20T05:05:16;6.20;99.90
43087;DHT22;28708;52.224;6.924;2023-12-20T05:07:44;6.20;99.90
43087;DHT22;28708;52.224;6.924;2023-12-20T05:10:10;6.20;99.90
43087;DHT22;28708;52.224;6.924;2023-12-20T05:12:35;6.20;99.90
43087;DHT22;28708;52.224;6.924;2023-12-20T05:15:01;6.20;99.90
43087;DHT22;28708;52.224;6.924;2023-12-20T05:17:28;6.20;99.90
43087;DHT22;28708;52.224;6.924;2023-12-20T05:19:53;6.20;99.90
43087;DHT22;28708;52.224;6.924;2023-12-20T05:22:19;6.20;99.90
43087;DHT22;28708;52.224;6.924;2023-12-20T05:24:45;6.20;99.90
43087;DHT22;28708;52.224;6.924;2023-12-20T05:27:11;6.20;99.90
43087;DHT22;28708;52.224;6.924;2023-12-20T05:29:37;6.20;99.90
43087;DHT22;28708;52.224;6.924;2023-12-20T05:32:04;6.20;99.90
43087;DHT22;28708;52.224;6.924;2023-12-20T05:34:30;6.30;99.90
43087;DHT22;28708;52.224;6.924;2023-12-20T05:36:57;6.30;99.90
43087;DHT22;28708;52.224;6.924;2023-12-20T05:39:23;6.30;99.90
43087;DHT22;28708;52.224;6.924;2023-12-20T05:41:48;6.30;99.90
43087;DHT22;28708;52.224;6.924;2023-12-20T05:44:14;6.40;99.90
43087;DHT22;28708;52.224;6.924;2023-12-20T05:46:39;6.40;99.90
43087;DHT22;28708;52.224;6.924;2023-12-20T05:49:06;6.40;99.90
43087;DHT22;28708;52.224;6.924;2023-12-20T05:51:31;6.40;99.90
43087;DHT22;28708;52.224;6.924;2023-12-20T05:53:58;6.40;99.90
43087;DHT22;28708;52.224;6.924;2023-12-20T05:56:24;6.40;99.90
43087;DHT22;28708;52.224;6.924;2023-12-20T05:58:49;6.40;99.90
43087;DHT22;28708;52.224;6.924;2023-12-20T06:01:15;6.30;99.90
43087;DHT22;28708;52.224;6.924;2023-12-20T06:03:42;6.40;99.90
43087;DHT22;28708;52.224;6.924;2023-12-20T06:06:09;6.30;99.90
43087;DHT22;28708;52.224;6.924;2023-12-20T06:08:34;6.40;99.90
43087;DHT22;28708;52.224;6.924;2023-12-20T06:11:00;6.30;99.90
43087;DHT22;28708;52.224;6.924;2023-12-20T06:13:26;6.40;99.90
43087;DHT22;28708;52.224;6.924;2023-12-20T06:15:54;6.40;99.90
43087;DHT22;28708;52.224;6.924;2023-12-20T06:18:20;6.40;99.90
43087;DHT22;28708;52.224;6.924;2023-12-20T06:20:47;6.40;99.90
43087;DHT22;28708;52.224;6.924;2023-12-20T06:23:12;6.40;99.90
43087;DHT22;28708;52.224;6.924;2023-12-20T06:25:38;6.40;99.90
43087;DHT22;28708;52.224;6.924;2023-12-20T06:28:04;6.40;99.90
43087;DHT22;28708;52.224;6.924;2023-12-20T06:30:30;6.50;99.90
43087;DHT22;28708;52.224;6.924;2023-12-20T06:32:58;6.40;99.90
43087;DHT22;28708;52.224;6.924;2023-12-20T06:35:25;6.50;99.90
43087;DHT22;28708;52.224;6.924;2023-12-20T06:37:51;6.50;99.90
43087;DHT22;28708;52.224;6.924;2023-12-20T06:40:17;6.50;99.90
43087;DHT22;28708;52.224;6.924;2023-12-20T06:42:45;6.60;99.90
43087;DHT22;28708;52.224;6.924;2023-12-20T06:45:11;6.60;99.90
43087;DHT22;28708;52.224;6.924;2023-12-20T06:47:38;6.60;99.90
43087;DHT22;28708;52.224;6.924;2023-12-20T06:50:04;6.60;99.90
43087;DHT22;28708;52.224;6.924;2023-12-20T06:52:30;6.60;99.90
43087;DHT22;28708;52.224;6.924;2023-12-20T06:54:55;6.70;99.90
43087;DHT22;28708;52.224;6.924;2023-12-20T06:57:21;6.70;99.90
43087;DHT22;28708;52.224;6.924;2023-12-20T06:59:47;6.70;99.90
43087;DHT22;28708;52.224;6.924;2023-12-20T07:02:12;6.70;99.90
43087;DHT22;28708;52.224;6.924;2023-12-20T07:04:42;6.70;99.90
43087;DHT22;28708;52.224;6.924;2023-12-20T07:07:07;6.70;99.90
43087;DHT22;28708;52.224;6.924;2023-12-20T07:09:33;6.70;99.90
43087;DHT22;28708;52.224;6.924;2023-12-20T07:11:59;6.70;99.90
43087;DHT22;28708;52.224;6.924;2023-12-20T07:14:25;6.70;99.90
43087;DHT22;28708;52.224;6.924;2023-12-20T07:16:51;6.70;99.90
43087;DHT22;28708;52.224;6.924;2023-12-20T07:19:16;6.70;99.90
43087;DHT22;28708;52.224;6.924;2023-12-20T07:21:43;6.70;99.90
43087;DHT22;28708;52.224;6.924;2023-12-20T07:24:08;6.80;99.90
43087;DHT22;28708;52.224;6.924;2023-12-20T07:26:35;6.80;99.90
43087;DHT22;28708;52.224;6.924;2023-12-20T07:29:00;6.80;99.90
43087;DHT22;28708;52.224;6.924;2023-12-20T07:31:26;6.80;99.90
43087;DHT22;28708;52.224;6.924;2023-12-20T07:33:51;6.80;99.90
43087;DHT22;28708;52.224;6.924;2023-12-20T07:36:19;6.80;99.90
43087;DHT22;28708;52.224;6.924;2023-12-20T07:38:48;6.80;99.90
43087;DHT22;28708;52.224;6.924;2023-12-20T07:41:14;6.90;99.90
43087;DHT22;28708;52.224;6.924;2023-12-20T07:43:41;6.90;99.90
43087;DHT22;28708;52.224;6.924;2023-12-20T07:46:08;6.90;99.90
43087;DHT22;28708;52.224;6.924;2023-12-20T07:48:35;6.90;99.90
43087;DHT22;28708;52.224;6.924;2023-12-20T07:51:01;6.90;99.90
43087;DHT22;28708;52.224;6.924;2023-12-20T07:53:27;6.90;99.90
43087;DHT22;28708;52.224;6.924;2023-12-20T07:55:53;7.00;99.90
43087;DHT22;28708;52.224;6.924;2023-12-20T07:58:19;6.90;99.90
43087;DHT22;28708;52.224;6.924;2023-12-20T08:00:44;7.00;99.90
43087;DHT22;28708;52.224;6.924;2023-12-20T08:03:10;7.00;99.90
43087;DHT22;28708;52.224;6.924;2023-12-20T08:05:35;6.90;99.90
43087;DHT22;28708;52.224;6.924;2023-12-20T08:08:01;7.00;99.90
43087;DHT22;28708;52.224;6.924;2023-12-20T08:10:27;7.00;99.90
43087;DHT22;28708;52.224;6.924;2023-12-20T08:12:55;7.00;99.90
43087;DHT22;28708;52.224;6.924;2023-12-20T08:15:21;7.00;99.90
43087;DHT22;28708;52.224;6.924;2023-12-20T08:17:47;7.00;99.90
43087;DHT22;28708;52.224;6.924;2023-12-20T08:20:13;7.10;99.90
43087;DHT22;28708;52.224;6.924;2023-12-20T08:22:39;7.10;99.90
43087;DHT22;28708;52.224;6.924;2023-12-20T08:25:05;7.10;99.90
43087;DHT22;28708;52.224;6.924;2023-12-20T08:27:30;7.10;99.90
43087;DHT22;28708;52.224;6.924;2023-12-20T08:29:57;7.10;99.90
43087;DHT22;28708;52.224;6.924;2023-12-20T08:32:25;7.20;99.90
43087;DHT22;28708;52.224;6.924;2023-12-20T08:34:52;7.20;99.90
43087;DHT22;28708;52.224;6.924;2023-12-20T08:37:17;7.20;99.90
43087;DHT22;28708;52.224;6.924;2023-12-20T08:39:43;7.10;99.90
43087;DHT22;28708;52.224;6.924;2023-12-20T08:42:09;7.20;99.90
43087;DHT22;28708;52.224;6.924;2023-12-20T08:44:35;7.20;99.90
43087;DHT22;28708;52.224;6.924;2023-12-20T08:47:01;7.20;99.90
43087;DHT22;28708;52.224;6.924;2023-12-20T08:49:27;7.20;99.90
43087;DHT22;28708;52.224;6.924;2023-12-20T08:51:53;7.20;99.90
43087;DHT22;28708;52.224;6.924;2023-12-20T08:54:19;7.20;99.90
43087;DHT22;28708;52.224;6.924;2023-12-20T08:56:45;7.20;99.90
43087;DHT22;28708;52.224;6.924;2023-12-20T08:59:11;7.20;99.90
43087;DHT22;28708;52.224;6.924;2023-12-20T09:01:37;7.20;99.90
43087;DHT22;28708;52.224;6.924;2023-12-20T09:04:03;7.20;99.90
43087;DHT22;28708;52.224;6.924;2023-12-20T09:06:29;7.20;99.90
43087;DHT22;28708;52.224;6.924;2023-12-20T09:08:54;7.20;99.90
43087;DHT22;28708;52.224;6.924;2023-12-20T09:11:20;7.10;99.90
43087;DHT22;28708;52.224;6.924;2023-12-20T09:13:46;7.10;99.90
43087;DHT22;28708;52.224;6.924;2023-12-20T09:16:11;7.10;99.90
43087;DHT22;28708;52.224;6.924;2023-12-20T09:18:38;7.10;99.90
43087;DHT22;28708;52.224;6.924;2023-12-20T09:21:04;7.00;99.90
43087;DHT22;28708;52.224;6.924;2023-12-20T09:23:30;7.00;99.90
43087;DHT22;28708;52.224;6.924;2023-12-20T09:25:56;7.00;99.90
43087;DHT22;28708;52.224;6.924;2023-12-20T09:28:22;7.10;99.90
43087;DHT22;28708;52.224;6.924;2023-12-20T09:30:47;7.10;99.90
43087;DHT22;28708;52.224;6.924;2023-12-20T09:33:14;7.10;99.90
43087;DHT22;28708;52.224;6.924;2023-12-20T09:35:39;7.10;99.90
43087;DHT22;28708;52.224;6.924;2023-12-20T09:38:05;7.10;99.90
43087;DHT22;28708;52.224;6.924;2023-12-20T09:40:32;7.10;99.90
43087;DHT22;28708;52.224;6.924;2023-12-20T09:43:10;7.10;99.90
43087;DHT22;28708;52.224;6.924;2023-12-20T09:45:36;7.10;99.90
43087;DHT22;28708;52.224;6.924;2023-12-20T09:48:04;7.10;99.90
43087;DHT22;28708;52.224;6.924;2023-12-20T09:50:30;7.10;99.90
43087;DHT22;28708;52.224;6.924;2023-12-20T09:52:58;7.10;99.90
43087;DHT22;28708;52.224;6.924;2023-12-20T09:55:28;7.10;99.90
43087;DHT22;28708;52.224;6.924;2023-12-20T09:57:54;7.10;99.90
43087;DHT22;28708;52.224;6.924;2023-12-20T10:00:20;7.20;99.90
43087;DHT22;28708;52.224;6.924;2023-12-20T10:02:50;7.10;99.90
43087;DHT22;28708;52.224;6.924;2023-12-20T10:05:32;7.10;99.90
43087;DHT22;28708;52.224;6.924;2023-12-20T10:07:59;7.10;99.90
43087;DHT22;28708;52.224;6.924;2023-12-20T10:10:26;7.10;99.90
43087;DHT22;28708;52.224;6.924;2023-12-20T10:13:21;7.10;99.90
43087;DHT22;28708;52.224;6.924;2023-12-20T10:15:47;7.10;99.90
43087;DHT22;28708;52.224;6.924;2023-12-20T10:18:15;7.20;99.90
43087;DHT22;28708;52.224;6.924;2023-12-20T10:20:41;7.20;99.90
43087;DHT22;28708;52.224;6.924;2023-12-20T10:23:07;7.20;99.90
43087;DHT22;28708;52.224;6.924;2023-12-20T10:25:33;7.30;99.90
43087;DHT22;28708;52.224;6.924;2023-12-20T10:30:34;7.30;99.90
43087;DHT22;28708;52.224;6.924;2023-12-20T10:33:01;7.40;99.90
43087;DHT22;28708;52.224;6.924;2023-12-20T10:35:26;7.40;99.90
43087;DHT22;28708;52.224;6.924;2023-12-20T10:37:55;7.40;99.90
43087;DHT22;28708;52.224;6.924;2023-12-20T10:40:27;7.40;99.90
43087;DHT22;28708;52.224;6.924;2023-12-20T10:42:55;7.40;99.90
43087;DHT22;28708;52.224;6.924;2023-12-20T10:45:22;7.50;99.90
43087;DHT22;28708;52.224;6.924;2023-12-20T10:47:49;7.40;99.90
43087;DHT22;28708;52.224;6.924;2023-12-20T10:50:15;7.60;99.90
43087;DHT22;28708;52.224;6.924;2023-12-20T10:52:42;8.00;99.90
43087;DHT22;28708;52.224;6.924;2023-12-20T10:55:10;8.00;99.90
43087;DHT22;28708;52.224;6.924;2023-12-20T10:57:36;7.90;99.90
43087;DHT22;28708;52.224;6.924;2023-12-20T11:00:03;7.80;99.90
43087;DHT22;28708;52.224;6.924;2023-12-20T11:02:32;7.80;99.90
43087;DHT22;28708;52.224;6.924;2023-12-20T11:05:34;7.90;99.90
43087;DHT22;28708;52.224;6.924;2023-12-20T11:08:09;7.80;99.90
43087;DHT22;28708;52.224;6.924;2023-12-20T11:13:08;7.80;99.90
43087;DHT22;28708;52.224;6.924;2023-12-20T11:15:36;7.80;99.90
43087;DHT22;28708;52.224;6.924;2023-12-20T11:18:04;7.80;99.90
43087;DHT22;28708;52.224;6.924;2023-12-20T11:20:40;7.80;99.90
43087;DHT22;28708;52.224;6.924;2023-12-20T11:23:07;8.10;99.90
43087;DHT22;28708;52.224;6.924;2023-12-20T11:25:52;7.90;99.90
43087;DHT22;28708;52.224;6.924;2023-12-20T11:28:23;7.90;99.90
43087;DHT22;28708;52.224;6.924;2023-12-20T11:31:00;7.80;99.90
43087;DHT22;28708;52.224;6.924;2023-12-20T11:33:29;7.70;99.90
43087;DHT22;28708;52.224;6.924;2023-12-20T11:35:56;7.80;99.90
43087;DHT22;28708;52.224;6.924;2023-12-20T11:38:22;7.70;99.90
43087;DHT22;28708;52.224;6.924;2023-12-20T11:40:52;7.70;99.90
43087;DHT22;28708;52.224;6.924;2023-12-20T11:43:32;7.70;99.90
43087;DHT22;28708;52.224;6.924;2023-12-20T11:46:07;7.70;99.90
43087;DHT22;28708;52.224;6.924;2023-12-20T11:48:38;7.80;99.90
43087;DHT22;28708;52.224;6.924;2023-12-20T11:51:13;7.80;99.90
43087;DHT22;28708;52.224;6.924;2023-12-20T11:53:42;7.90;99.90
43087;DHT22;28708;52.224;6.924;2023-12-20T11:56:08;7.90;99.90
43087;DHT22;28708;52.224;6.924;2023-12-20T11:58:35;8.00;99.90
43087;DHT22;28708;52.224;6.924;2023-12-20T12:01:01;8.00;99.90
43087;DHT22;28708;52.224;6.924;2023-12-20T12:03:32;8.00;99.90
43087;DHT22;28708;52.224;6.924;2023-12-20T12:05:58;8.00;99.90
43087;DHT22;28708;52.224;6.924;2023-12-20T12:08:23;8.00;99.90
43087;DHT22;28708;52.224;6.924;2023-12-20T12:10:49;8.00;99.90
43087;DHT22;28708;52.224;6.924;2023-12-20T12:13:15;7.80;99.90
43087;DHT22;28708;52.224;6.924;2023-12-20T12:15:41;7.60;99.90
43087;DHT22;28708;52.224;6.924;2023-12-20T12:18:07;7.30;99.90
43087;DHT22;28708;52.224;6.924;2023-12-20T12:20:33;7.20;99.90
43087;DHT22;28708;52.224;6.924;2023-12-20T12:23:05;7.10;99.90
43087;DHT22;28708;52.224;6.924;2023-12-20T12:25:34;7.10;99.90
43087;DHT22;28708;52.224;6.924;2023-12-20T12:28:01;7.10;99.90
43087;DHT22;28708;52.224;6.924;2023-12-20T12:30:27;7.10;99.90
43087;DHT22;28708;52.224;6.924;2023-12-20T12:32:53;7.10;99.90
43087;DHT22;28708;52.224;6.924;2023-12-20T12:35:20;7.00;99.90
43087;DHT22;28708;52.224;6.924;2023-12-20T12:37:47;6.90;99.90
43087;DHT22;28708;52.224;6.924;2023-12-20T12:40:14;7.00;99.90
43087;DHT22;28708;52.224;6.924;2023-12-20T12:42:41;7.10;99.90
43087;DHT22;28708;52.224;6.924;2023-12-20T12:45:08;7.00;99.90
43087;DHT22;28708;52.224;6.924;2023-12-20T12:47:34;7.00;99.90
43087;DHT22;28708;52.224;6.924;2023-12-20T12:50:00;7.00;99.90
43087;DHT22;28708;52.224;6.924;2023-12-20T12:52:26;7.00;99.90
43087;DHT22;28708;52.224;6.924;2023-12-20T12:54:52;6.90;99.90
43087;DHT22;28708;52.224;6.924;2023-12-20T12:57:20;7.00;99.90
43087;DHT22;28708;52.224;6.924;2023-12-20T12:59:46;6.90;99.90
43087;DHT22;28708;52.224;6.924;2023-12-20T13:02:12;6.90;99.90
43087;DHT22;28708;52.224;6.924;2023-12-20T13:04:39;7.00;99.90
43087;DHT22;28708;52.224;6.924;2023-12-20T13:07:05;7.00;99.90
43087;DHT22;28708;52.224;6.924;2023-12-20T13:09:31;7.00;99.90
43087;DHT22;28708;52.224;6.924;2023-12-20T13:11:57;6.90;99.90
43087;DHT22;28708;52.224;6.924;2023-12-20T13:14:22;6.90;99.90
43087;DHT22;28708;52.224;6.924;2023-12-20T13:16:48;7.00;99.90
43087;DHT22;28708;52.224;6.924;2023-12-20T13:19:14;7.00;99.90
43087;DHT22;28708;52.224;6.924;2023-12-20T13:21:40;7.00;99.90
43087;DHT22;28708;52.224;6.924;2023-12-20T13:24:05;7.00;99.90
43087;DHT22;28708;52.224;6.924;2023-12-20T13:26:32;7.10;99.90
43087;DHT22;28708;52.224;6.924;2023-12-20T13:28:59;7.10;99.90
43087;DHT22;28708;52.224;6.924;2023-12-20T13:31:24;7.10;99.90
43087;DHT22;28708;52.224;6.924;2023-12-20T13:33:50;7.10;99.90
43087;DHT22;28708;52.224;6.924;2023-12-20T13:36:18;7.10;99.90
43087;DHT22;28708;52.224;6.924;2023-12-20T13:38:43;7.10;99.90
43087;DHT22;28708;52.224;6.924;2023-12-20T13:41:09;7.10;99.90
43087;DHT22;28708;52.224;6.924;2023-12-20T13:43:35;7.00;99.90
43087;DHT22;28708;52.224;6.924;2023-12-20T13:46:01;7.00;99.90
43087;DHT22;28708;52.224;6.924;2023-12-20T13:48:28;6.90;99.90
43087;DHT22;28708;52.224;6.924;2023-12-20T13:50:53;7.00;99.90
43087;DHT22;28708;52.224;6.924;2023-12-20T13:53:20;7.00;99.90
43087;DHT22;28708;52.224;6.924;2023-12-20T13:55:46;7.00;99.90
43087;DHT22;28708;52.224;6.924;2023-12-20T13:58:11;7.20;99.90
43087;DHT22;28708;52.224;6.924;2023-12-20T14:00:37;7.40;99.90
43087;DHT22;28708;52.224;6.924;2023-12-20T14:03:04;7.40;99.90
43087;DHT22;28708;52.224;6.924;2023-12-20T14:05:31;7.40;99.90
43087;DHT22;28708;52.224;6.924;2023-12-20T14:07:57;7.40;99.90
43087;DHT22;28708;52.224;6.924;2023-12-20T14:10:26;7.40;99.90
43087;DHT22;28708;52.224;6.924;2023-12-20T14:12:53;7.40;99.90
43087;DHT22;28708;52.224;6.924;2023-12-20T14:15:19;7.50;99.90
43087;DHT22;28708;52.224;6.924;2023-12-20T14:17:44;7.40;99.90
43087;DHT22;28708;52.224;6.924;2023-12-20T14:20:10;7.50;99.90
43087;DHT22;28708;52.224;6.924;2023-12-20T14:22:38;7.50;99.90
43087;DHT22;28708;52.224;6.924;2023-12-20T14:25:04;7.50;99.90
43087;DHT22;28708;52.224;6.924;2023-12-20T14:27:31;7.60;99.90
43087;DHT22;28708;52.224;6.924;2023-12-20T14:29:57;7.60;99.90
43087;DHT22;28708;52.224;6.924;2023-12-20T14:32:24;7.60;99.90
43087;DHT22;28708;52.224;6.924;2023-12-20T14:34:52;7.60;99.90
43087;DHT22;28708;52.224;6.924;2023-12-20T14:37:17;7.60;99.90
43087;DHT22;28708;52.224;6.924;2023-12-20T14:39:43;7.70;99.90
43087;DHT22;28708;52.224;6.924;2023-12-20T14:42:09;7.70;99.90
43087;DHT22;28708;52.224;6.924;2023-12-20T14:44:42;7.70;99.90
43087;DHT22;28708;52.224;6.924;2023-12-20T14:47:08;7.80;99.90
43087;DHT22;28708;52.224;6.924;2023-12-20T14:49:34;7.70;99.90
43087;DHT22;28708;52.224;6.924;2023-12-20T14:52:00;7.80;99.90
43087;DHT22;28708;52.224;6.924;2023-12-20T14:54:25;7.80;99.90
43087;DHT22;28708;52.224;6.924;2023-12-20T14:56:51;7.80;99.90
43087;DHT22;28708;52.224;6.924;2023-12-20T14:59:17;7.80;99.90
43087;DHT22;28708;52.224;6.924;2023-12-20T15:01:43;7.80;99.90
43087;DHT22;28708;52.224;6.924;2023-12-20T15:04:09;7.80;99.90
43087;DHT22;28708;52.224;6.924;2023-12-20T15:06:36;7.80;99.90
43087;DHT22;28708;52.224;6.924;2023-12-20T15:09:02;7.80;99.90
43087;DHT22;28708;52.224;6.924;2023-12-20T15:11:30;7.80;99.90
43087;DHT22;28708;52.224;6.924;2023-12-20T15:13:56;7.80;99.90
43087;DHT22;28708;52.224;6.924;2023-12-20T15:16:23;7.80;99.90
43087;DHT22;28708;52.224;6.924;2023-12-20T15:18:49;7.80;99.90
43087;DHT22;28708;52.224;6.924;2023-12-20T15:21:16;7.80;99.90
43087;DHT22;28708;52.224;6.924;2023-12-20T15:23:42;7.80;99.90
43087;DHT22;28708;52.224;6.924;2023-12-20T15:26:19;7.80;99.90
43087;DHT22;28708;52.224;6.924;2023-12-20T15:28:45;7.80;99.90
43087;DHT22;28708;52.224;6.924;2023-12-20T15:31:11;7.80;99.90
43087;DHT22;28708;52.224;6.924;2023-12-20T15:33:39;7.80;99.90
43087;DHT22;28708;52.224;6.924;2023-12-20T15:36:05;7.80;99.90
43087;DHT22;28708;52.224;6.924;2023-12-20T15:38:31;7.80;99.90
43087;DHT22;28708;52.224;6.924;2023-12-20T15:40:56;7.80;99.90
43087;DHT22;28708;52.224;6.924;2023-12-20T15:43:22;7.80;99.90
43087;DHT22;28708;52.224;6.924;2023-12-20T15:45:48;7.80;99.90